AAL824 KSLC-KPDX
Flight info
| Callsign | AAL824 |
|---|---|
| Flight time | N/A |
| Altitude | 34000 |
| Route | CGULL1 TWF ALKAL IMB JOTBA HHOOD6 |
| Aircraft | B738/M-SDE2E3FGHIRWXY/LB1 |
Departure
| Time | 2026-05-04 05:56 |
|---|---|
| Airport | Salt Lake City International Airport (KSLC) |
Arrival
| Time | N/A |
|---|---|
| Airport | Portland International Airport (KPDX) |
| Time | Latitude | Longitude | Altitude | Speed | Heading |
|---|---|---|---|---|---|
| 2026-05-04 05:38 | 40.78657 | -111.98206 | 4232 ft | 0 kts | 175° |
| 2026-05-04 05:47 | 40.78792 | -111.98263 | 4230 ft | 2 kts | 84° |
| 2026-05-04 05:47 | 40.78791 | -111.98276 | 4230 ft | 0 kts | 80° |
| 2026-05-04 05:52 | 40.78791 | -111.98272 | 4228 ft | 4 kts | 80° |
| 2026-05-04 05:52 | 40.78797 | -111.98195 | 4230 ft | 12 kts | 86° |
| 2026-05-04 05:53 | 40.78807 | -111.98038 | 4232 ft | 23 kts | 83° |
| 2026-05-04 05:54 | 40.80163 | -111.97842 | 4235 ft | 40 kts | 355° |
| 2026-05-04 05:55 | 40.80438 | -111.97876 | 4234 ft | 41 kts | 353° |
| 2026-05-04 05:55 | 40.80675 | -111.97905 | 4231 ft | 11 kts | 2° |
| 2026-05-04 05:55 | 40.80742 | -111.97845 | 4229 ft | 15 kts | 69° |
| 2026-05-04 05:55 | 40.80676 | -111.97688 | 4228 ft | 16 kts | 167° |
| 2026-05-04 05:56 | 40.80325 | -111.97639 | 4234 ft | 88 kts | 176° |
| 2026-05-04 05:56 | 40.79472 | -111.97545 | 4227 ft | 155 kts | 174° |
| 2026-05-04 05:56 | 40.78226 | -111.97391 | 4479 ft | 194 kts | 174° |
| 2026-05-04 05:56 | 40.76854 | -111.97290 | 5353 ft | 202 kts | 177° |
| 2026-05-04 05:57 | 40.75417 | -111.97227 | 6184 ft | 209 kts | 176° |
| 2026-05-04 05:57 | 40.73926 | -111.97102 | 6762 ft | 227 kts | 178° |
| 2026-05-04 05:57 | 40.72328 | -111.97714 | 6974 ft | 258 kts | 216° |
| 2026-05-04 05:57 | 40.71292 | -111.99651 | 7599 ft | 265 kts | 255° |
| 2026-05-04 05:58 | 40.71232 | -112.01993 | 8418 ft | 269 kts | 281° |
| 2026-05-04 05:58 | 40.71967 | -112.04355 | 8976 ft | 289 kts | 301° |
| 2026-05-04 05:58 | 40.73292 | -112.06364 | 9891 ft | 294 kts | 320° |
| 2026-05-04 05:58 | 40.74916 | -112.08056 | 10652 ft | 306 kts | 322° |
| 2026-05-04 05:59 | 40.76690 | -112.09830 | 10877 ft | 335 kts | 322° |
| 2026-05-04 05:59 | 40.78593 | -112.11758 | 11433 ft | 351 kts | 322° |
| 2026-05-04 05:59 | 40.80519 | -112.13752 | 12358 ft | 353 kts | 321° |
| 2026-05-04 05:59 | 40.82445 | -112.15787 | 13274 ft | 357 kts | 320° |
| 2026-05-04 06:00 | 40.84393 | -112.17874 | 14031 ft | 363 kts | 319° |
| 2026-05-04 06:00 | 40.86347 | -112.19990 | 14831 ft | 365 kts | 319° |
| 2026-05-04 06:00 | 40.88308 | -112.22123 | 15640 ft | 366 kts | 319° |
| 2026-05-04 06:00 | 40.90276 | -112.24271 | 16404 ft | 369 kts | 319° |
| 2026-05-04 06:01 | 40.92266 | -112.26446 | 17141 ft | 372 kts | 319° |
| 2026-05-04 06:01 | 40.94271 | -112.28640 | 17844 ft | 375 kts | 319° |
| 2026-05-04 06:03 | 41.08859 | -112.44333 | 21705 ft | 400 kts | 325° |
| 2026-05-04 06:03 | 41.11235 | -112.46276 | 22210 ft | 403 kts | 327° |
| 2026-05-04 06:05 | 41.27552 | -112.61774 | 25063 ft | 421 kts | 319° |
| 2026-05-04 06:05 | 41.31633 | -112.67382 | 25761 ft | 424 kts | 310° |
| 2026-05-04 06:05 | 41.33584 | -112.70341 | 26092 ft | 428 kts | 310° |
| 2026-05-04 06:06 | 41.35567 | -112.73315 | 26407 ft | 431 kts | 311° |
| 2026-05-04 06:06 | 41.37582 | -112.76289 | 26781 ft | 434 kts | 311° |
| 2026-05-04 06:06 | 41.39618 | -112.79270 | 27159 ft | 436 kts | 311° |
| 2026-05-04 06:06 | 41.41653 | -112.82278 | 27482 ft | 439 kts | 311° |
| 2026-05-04 06:07 | 41.43674 | -112.85344 | 27809 ft | 442 kts | 310° |
| 2026-05-04 06:07 | 41.45693 | -112.88441 | 28151 ft | 444 kts | 310° |
| 2026-05-04 06:07 | 41.47721 | -112.91565 | 28485 ft | 446 kts | 310° |
| 2026-05-04 06:07 | 41.49755 | -112.94699 | 28837 ft | 448 kts | 311° |
| 2026-05-04 06:08 | 41.51793 | -112.97836 | 29297 ft | 446 kts | 311° |
| 2026-05-04 06:08 | 41.53772 | -113.00881 | 29794 ft | 444 kts | 311° |
| 2026-05-04 06:08 | 41.55791 | -113.03988 | 30214 ft | 443 kts | 311° |
| 2026-05-04 06:08 | 41.57809 | -113.07091 | 30588 ft | 442 kts | 311° |
| 2026-05-04 06:09 | 41.59819 | -113.10187 | 30935 ft | 441 kts | 311° |
| 2026-05-04 06:09 | 41.61831 | -113.13287 | 31258 ft | 442 kts | 311° |
| 2026-05-04 06:11 | 41.75628 | -113.34639 | 33822 ft | 431 kts | 310° |
| 2026-05-04 06:13 | 41.91223 | -113.58963 | 33825 ft | 428 kts | 310° |
| 2026-05-04 06:14 | 42.03187 | -113.77758 | 33817 ft | 455 kts | 310° |
| 2026-05-04 06:14 | 42.05225 | -113.80971 | 33825 ft | 459 kts | 310° |
| 2026-05-04 06:15 | 42.09391 | -113.87552 | 33817 ft | 463 kts | 310° |
| 2026-05-04 06:15 | 42.13556 | -113.94144 | 33807 ft | 461 kts | 310° |
| 2026-05-04 06:16 | 42.17665 | -114.00660 | 33809 ft | 460 kts | 309° |
| 2026-05-04 06:16 | 42.21814 | -114.07222 | 33802 ft | 459 kts | 310° |
| 2026-05-04 06:17 | 42.25963 | -114.13792 | 33801 ft | 460 kts | 310° |
| 2026-05-04 06:17 | 42.30114 | -114.20384 | 33801 ft | 461 kts | 310° |
| 2026-05-04 06:18 | 42.34267 | -114.26996 | 33798 ft | 462 kts | 310° |
| 2026-05-04 06:20 | 42.50855 | -114.53451 | 33911 ft | 460 kts | 311° |
| 2026-05-04 06:21 | 42.61381 | -114.69668 | 33858 ft | 459 kts | 311° |
| 2026-05-04 06:22 | 42.65582 | -114.76194 | 33844 ft | 459 kts | 311° |
| 2026-05-04 06:25 | 42.94230 | -115.21126 | 33800 ft | 463 kts | 311° |
| 2026-05-04 06:26 | 42.98446 | -115.27796 | 33815 ft | 465 kts | 311° |
| 2026-05-04 06:26 | 43.02476 | -115.34691 | 33796 ft | 466 kts | 301° |
| 2026-05-04 06:27 | 43.10221 | -115.54260 | 33832 ft | 471 kts | 299° |
| 2026-05-04 06:28 | 43.13346 | -115.62169 | 33833 ft | 473 kts | 299° |
| 2026-05-04 06:28 | 43.16491 | -115.70089 | 33832 ft | 474 kts | 299° |
| 2026-05-04 06:29 | 43.19641 | -115.78031 | 33823 ft | 475 kts | 299° |
| 2026-05-04 06:29 | 43.22793 | -115.86003 | 33831 ft | 476 kts | 299° |
| 2026-05-04 06:30 | 43.25950 | -115.94012 | 33829 ft | 477 kts | 299° |
| 2026-05-04 06:30 | 43.29062 | -116.01933 | 33821 ft | 477 kts | 299° |
| 2026-05-04 06:31 | 43.32185 | -116.09903 | 33817 ft | 477 kts | 299° |
| 2026-05-04 06:31 | 43.35329 | -116.17948 | 33823 ft | 478 kts | 299° |
| 2026-05-04 06:33 | 43.47855 | -116.50233 | 33849 ft | 478 kts | 299° |
| 2026-05-04 06:34 | 43.50975 | -116.58331 | 33855 ft | 478 kts | 299° |
| 2026-05-04 06:34 | 43.54088 | -116.66436 | 33850 ft | 478 kts | 299° |
| 2026-05-04 06:36 | 43.66481 | -116.98930 | 33843 ft | 481 kts | 299° |
| 2026-05-04 06:37 | 43.69548 | -117.07029 | 33833 ft | 481 kts | 299° |
| 2026-05-04 06:37 | 43.72638 | -117.15216 | 33836 ft | 481 kts | 299° |
| 2026-05-04 06:38 | 43.75724 | -117.23413 | 33849 ft | 481 kts | 299° |
| 2026-05-04 06:40 | 43.87959 | -117.56155 | 33858 ft | 478 kts | 299° |
| 2026-05-04 06:40 | 43.90995 | -117.64341 | 33859 ft | 477 kts | 299° |
| 2026-05-04 06:41 | 43.94026 | -117.72535 | 33876 ft | 477 kts | 299° |
| 2026-05-04 06:41 | 43.97045 | -117.80723 | 33880 ft | 477 kts | 299° |
| 2026-05-04 06:42 | 44.00057 | -117.88914 | 33887 ft | 477 kts | 299° |
| 2026-05-04 06:44 | 44.12016 | -118.21683 | 33912 ft | 476 kts | 298° |
| 2026-05-04 06:44 | 44.14982 | -118.29870 | 33911 ft | 477 kts | 298° |
| 2026-05-04 06:45 | 44.17959 | -118.38113 | 33918 ft | 476 kts | 299° |
| 2026-05-04 06:45 | 44.20932 | -118.46369 | 33931 ft | 477 kts | 298° |
| 2026-05-04 06:46 | 44.23901 | -118.54637 | 33926 ft | 477 kts | 298° |
| 2026-05-04 06:46 | 44.26860 | -118.62906 | 33930 ft | 477 kts | 298° |
| 2026-05-04 06:48 | 44.38620 | -118.96013 | 33908 ft | 464 kts | 298° |
| 2026-05-04 06:50 | 44.50033 | -119.28524 | 33937 ft | 479 kts | 299° |
| 2026-05-04 06:51 | 44.52958 | -119.36924 | 33927 ft | 480 kts | 299° |
| 2026-05-04 06:51 | 44.55880 | -119.45341 | 33930 ft | 480 kts | 299° |
| 2026-05-04 06:52 | 44.58795 | -119.53765 | 33928 ft | 479 kts | 298° |
| 2026-05-04 06:52 | 44.60231 | -119.57928 | 33910 ft | 466 kts | 298° |
| 2026-05-04 06:52 | 44.61615 | -119.61946 | 33915 ft | 449 kts | 299° |
| 2026-05-04 06:53 | 44.64310 | -119.69659 | 33917 ft | 436 kts | 303° |
| 2026-05-04 06:53 | 44.65961 | -119.73142 | 33910 ft | 421 kts | 314° |
| 2026-05-04 06:53 | 44.67880 | -119.76166 | 33752 ft | 410 kts | 316° |
| 2026-05-04 06:54 | 44.69804 | -119.79078 | 33421 ft | 404 kts | 317° |
| 2026-05-04 06:54 | 44.71712 | -119.81951 | 33064 ft | 400 kts | 317° |
| 2026-05-04 06:54 | 44.73595 | -119.84801 | 32713 ft | 396 kts | 316° |
| 2026-05-04 06:54 | 44.75460 | -119.87641 | 32341 ft | 394 kts | 316° |
| 2026-05-04 06:55 | 44.77306 | -119.90472 | 31992 ft | 391 kts | 316° |
| 2026-05-04 06:55 | 44.79132 | -119.93285 | 31634 ft | 388 kts | 316° |
| 2026-05-04 06:55 | 44.80946 | -119.96086 | 31289 ft | 385 kts | 316° |
| 2026-05-04 06:55 | 44.82744 | -119.98869 | 30940 ft | 383 kts | 316° |
| 2026-05-04 06:56 | 44.84491 | -120.01577 | 30604 ft | 380 kts | 316° |
| 2026-05-04 06:57 | 44.96587 | -120.20408 | 28098 ft | 360 kts | 315° |
| 2026-05-04 06:58 | 44.98256 | -120.23016 | 27768 ft | 356 kts | 315° |
| 2026-05-04 06:58 | 44.99912 | -120.25605 | 27408 ft | 354 kts | 315° |
| 2026-05-04 06:58 | 45.01555 | -120.28177 | 27062 ft | 352 kts | 315° |
| 2026-05-04 06:58 | 45.03187 | -120.30733 | 26726 ft | 349 kts | 315° |
| 2026-05-04 06:59 | 45.04808 | -120.33276 | 26390 ft | 347 kts | 315° |
| 2026-05-04 06:59 | 45.06423 | -120.35811 | 26045 ft | 345 kts | 315° |
| 2026-05-04 06:59 | 45.08023 | -120.38323 | 25717 ft | 343 kts | 315° |
| 2026-05-04 06:59 | 45.09611 | -120.40822 | 25377 ft | 341 kts | 315° |
| 2026-05-04 07:01 | 45.19651 | -120.59128 | 22951 ft | 346 kts | 300° |
| 2026-05-04 07:01 | 45.20763 | -120.62175 | 22572 ft | 350 kts | 300° |
| 2026-05-04 07:02 | 45.21891 | -120.65237 | 22183 ft | 351 kts | 300° |
| 2026-05-04 07:02 | 45.23035 | -120.68299 | 21791 ft | 351 kts | 300° |
| 2026-05-04 07:02 | 45.24188 | -120.71351 | 21422 ft | 350 kts | 301° |
| 2026-05-04 07:02 | 45.25343 | -120.74384 | 21054 ft | 348 kts | 301° |
| 2026-05-04 07:03 | 45.26480 | -120.77360 | 20695 ft | 347 kts | 301° |
| 2026-05-04 07:03 | 45.27645 | -120.80403 | 20322 ft | 345 kts | 301° |
| 2026-05-04 07:03 | 45.28774 | -120.83353 | 19972 ft | 344 kts | 301° |
| 2026-05-04 07:03 | 45.29914 | -120.86332 | 19607 ft | 343 kts | 301° |
| 2026-05-04 07:04 | 45.31049 | -120.89302 | 19256 ft | 341 kts | 301° |
| 2026-05-04 07:04 | 45.32179 | -120.92262 | 18896 ft | 340 kts | 301° |
| 2026-05-04 07:04 | 45.33306 | -120.95215 | 18532 ft | 340 kts | 301° |
| 2026-05-04 07:04 | 45.34430 | -120.98165 | 18171 ft | 339 kts | 301° |
| 2026-05-04 07:05 | 45.35527 | -121.01043 | 17771 ft | 338 kts | 300° |
| 2026-05-04 07:05 | 45.36643 | -121.03979 | 17374 ft | 337 kts | 300° |
| 2026-05-04 07:05 | 45.37753 | -121.06901 | 17025 ft | 334 kts | 300° |
| 2026-05-04 07:05 | 45.38800 | -121.09847 | 16644 ft | 334 kts | 294° |
| 2026-05-04 07:06 | 45.40283 | -121.16116 | 15850 ft | 334 kts | 289° |
| 2026-05-04 07:06 | 45.40967 | -121.19273 | 15461 ft | 334 kts | 289° |
| 2026-05-04 07:06 | 45.41666 | -121.22424 | 15073 ft | 333 kts | 289° |
| 2026-05-04 07:07 | 45.42377 | -121.25564 | 14672 ft | 333 kts | 289° |
| 2026-05-04 07:08 | 45.47397 | -121.47284 | 12059 ft | 322 kts | 289° |
| 2026-05-04 07:09 | 45.48090 | -121.50291 | 11763 ft | 318 kts | 289° |
| 2026-05-04 07:09 | 45.48774 | -121.53265 | 11466 ft | 314 kts | 289° |
| 2026-05-04 07:09 | 45.49445 | -121.56190 | 11301 ft | 306 kts | 289° |
| 2026-05-04 07:09 | 45.50102 | -121.59051 | 11039 ft | 302 kts | 289° |
| 2026-05-04 07:10 | 45.50703 | -121.61881 | 10904 ft | 294 kts | 281° |
| 2026-05-04 07:10 | 45.50823 | -121.64741 | 10829 ft | 284 kts | 270° |
| 2026-05-04 07:12 | 45.50734 | -121.84407 | 8574 ft | 282 kts | 271° |
| 2026-05-04 07:12 | 45.50736 | -121.87197 | 8253 ft | 282 kts | 271° |
| 2026-05-04 07:12 | 45.50740 | -121.89992 | 7921 ft | 281 kts | 271° |
| 2026-05-04 07:12 | 45.50743 | -121.92774 | 7608 ft | 280 kts | 271° |
| 2026-05-04 07:13 | 45.50751 | -121.95543 | 7300 ft | 279 kts | 271° |
| 2026-05-04 07:13 | 45.50750 | -121.97373 | 7086 ft | 279 kts | 271° |
| 2026-05-04 07:13 | 45.50753 | -122.00109 | 6780 ft | 279 kts | 270° |
| 2026-05-04 07:14 | 45.50753 | -122.10700 | 5522 ft | 255 kts | 271° |
| 2026-05-04 07:14 | 45.50754 | -122.13209 | 5195 ft | 250 kts | 271° |
| 2026-05-04 07:15 | 45.50757 | -122.15664 | 4867 ft | 246 kts | 271° |
| 2026-05-04 07:15 | 45.50755 | -122.18050 | 4556 ft | 242 kts | 271° |
| 2026-05-04 07:15 | 45.50752 | -122.20407 | 4236 ft | 238 kts | 271° |
| 2026-05-04 07:15 | 45.50752 | -122.22775 | 3905 ft | 235 kts | 271° |
| 2026-05-04 07:16 | 45.50747 | -122.25095 | 3592 ft | 233 kts | 271° |
| 2026-05-04 07:16 | 45.50746 | -122.27387 | 3267 ft | 230 kts | 271° |
| 2026-05-04 07:16 | 45.50746 | -122.29650 | 2958 ft | 227 kts | 271° |
| 2026-05-04 07:16 | 45.50746 | -122.30408 | 2853 ft | 226 kts | 271° |